Mokihana — WNRD — position and weather

sailwx.info

Track history (hours):
 
Tides and Currents Weather Stations Pressure Air Temp Water Temp Dewpoint Dewpoint Depression Visibility Wind Speed Wind Dir Waves Ship Positions

Mokihana

Owner: MATSON NAVIGATION CO, Tacoma, WA. More information available from US FCC via Universal Licensing System and Coast Guard Vessel Documentation Center.

Last reported at 2017-Dec-14 13:11 UTC. Time now 2017-Dec-16 01:24 UTC.
Position N 33°46' W 118°13'.

Type: Ship. MMSI: 367196000.

Date/timePositionNaut miles runAvg speedWind from/ knotsBaromVisibWave heightAir tempDewpointWater temp
2017-Dec-14 13:11N 33°46' W 118°13'4 6.7
2017-Dec-14 12:36N 33°42' W 118°11'110.7
2017-Dec-14 12:30N 33°41' W 118°11'510.0
2017-Dec-14 12:00N 33°36' W 118°10'510.3
2017-Dec-14 11:31N 33°32' W 118°08'611.7
2017-Dec-14 11:01N 33°26' W 118°05'611.8
2017-Dec-14 10:30N 33°21' W 118°03'611.7
2017-Dec-14 10:00N 33°15' W 117°60'612.0
2017-Dec-14 09:30N 33°10' W 117°57'714.1
2017-Dec-14 09:01N 33°03' W 117°55'815.2
2017-Dec-14 08:30N 32°56' W 117°53'815.3
2017-Dec-14 08:00N 32°48' W 117°51'815.4
2017-Dec-14 07:30N 32°40' W 117°50'714.7
2017-Dec-14 07:00N 32°33' W 117°52'815.2
2017-Dec-14 06:30N 32°27' W 117°56'815.6
2017-Dec-14 06:00N 32°19' W 117°59'815.6
2017-Dec-14 05:30N 32°12' W 118°02'815.5
2017-Dec-14 05:00N 32°05' W 118°06'815.5
2017-Dec-14 04:28N 31°57' W 118°10'715.6
2017-Dec-14 04:00N 31°51' W 118°13'815.4
2017-Dec-14 03:30N 31°44' W 118°17'5716.2
2017-Dec-14 00:00N 31°00' W 119°00'4024.6 340 / 71015.0 24.015.818.0
2017-Dec-13 22:21N 30°53' W 119°46'822.6
2017-Dec-13 22:00N 30°51' W 119°55'1122.3
2017-Dec-13 21:30N 30°49' W 120°08'1122.4
2017-Dec-13 21:00N 30°47' W 120°21'1122.4
2017-Dec-13 20:30N 30°44' W 120°33'1122.4
2017-Dec-13 20:00N 30°42' W 120°46'1122.3
2017-Dec-13 19:30N 30°39' W 120°59'1122.5
2017-Dec-13 19:00N 30°37' W 121°12'1122.2
2017-Dec-13 18:30N 30°35' W 121°24'1122.4
2017-Dec-13 18:00N 30°32' W 121°37'1122.1
2017-Dec-13 17:30N 30°30' W 121°49'1122.2
2017-Dec-13 17:00N 30°29' W 122°02'1122.2
2017-Dec-13 16:30N 30°28' W 122°15'1121.9
2017-Dec-13 16:00N 30°28' W 122°28'1121.7
2017-Dec-13 15:30N 30°27' W 122°40'1121.7
2017-Dec-13 15:00N 30°26' W 122°53'1121.8
2017-Dec-13 14:30N 30°25' W 123°05'1121.6
2017-Dec-13 14:00N 30°25' W 123°18'1121.8
2017-Dec-13 13:30N 30°24' W 123°30'1121.8
2017-Dec-13 13:00N 30°23' W 123°43'1121.8
2017-Dec-13 12:30N 30°22' W 123°56'1121.7
2017-Dec-13 12:00N 30°21' W 124°08'4245.9
2017-Dec-13 12:00N 30°18' W 124°06'1426.2 350 / 121020.0 16.012.417.0
2017-Dec-13 11:26N 30°20' W 124°22'1021.8
2017-Dec-13 10:59N 30°20' W 124°34'1021.5
2017-Dec-13 10:30N 30°19' W 124°46'1121.8
2017-Dec-13 10:00N 30°18' W 124°58'1121.7
2017-Dec-13 09:30N 30°17' W 125°11'1121.8
2017-Dec-13 09:00N 30°16' W 125°23'1121.7
2017-Dec-13 08:30N 30°15' W 125°36'1121.8
2017-Dec-13 08:00N 30°14' W 125°49'1121.8
2017-Dec-13 07:30N 30°13' W 126°01'1121.6
2017-Dec-13 07:00N 30°12' W 126°14'1121.4
2017-Dec-13 06:30N 30°11' W 126°26'1121.6
2017-Dec-13 06:00N 30°10' W 126°38'1121.7
2017-Dec-13 05:30N 30°09' W 126°51'1121.7
2017-Dec-13 05:00N 30°08' W 127°03'1121.6
2017-Dec-13 04:30N 30°07' W 127°16'1121.8
2017-Dec-13 04:00N 30°05' W 127°28'1121.5
2017-Dec-13 03:30N 30°04' W 127°41'1321.4
2017-Dec-13 02:53N 30°03' W 127°56'3921.7
2017-Dec-13 01:04N 29°58' W 128°41'2220.5
2017-Dec-13 00:00N 29°54' W 129°06'6321.8 110 / 121022.027.0 23.014.624.0
2017-Dec-12 21:07N 29°48' W 130°18'221.0
2017-Dec-12 21:00N 29°47' W 130°21'1121.0
2017-Dec-12 20:30N 29°46' W 130°33'1921.1
2017-Dec-12 19:35N 29°43' W 130°55'221.5
2017-Dec-12 19:30N 29°43' W 130°57'1521.2
2017-Dec-12 18:48N 29°41' W 131°14'821.5
2017-Dec-12 18:26N 29°40' W 131°23'2421.5
2017-Dec-12 17:20N 29°37' W 131°50'821.8
2017-Dec-12 16:59N 29°35' W 131°58'10721.5
2017-Dec-12 12:00N 29°18' W 134°00'26321.9 140 / 151024.0 18.014.622.0
2017-Dec-12 00:00N 28°24' W 138°54'52121.7 130 / 81019.0 23.018.323.0
2017-Dec-11 00:00N 25°18' W 148°00'25621.3 070 / 101015.110.8 25.013.123.0
2017-Dec-10 12:00N 23°36' W 152°18'14023.4 050 / 141014.410.8 20.214.824.0
2017-Dec-10 06:00N 22°36' W 154°36'   070 / 31013.0 23.019.924.0
2017-Dec-06 12:00N 23°24' W 152°42'23419.5 330 / 221015.410.8 20.010.923.3
2017-Dec-06 00:00N 25°00' W 148°48'24720.6 330 / 451006.810.8 19.412.723.3
2017-Dec-05 12:00N 26°24' W 144°30'26221.8 050 / 61009.910.8 20.616.022.2
2017-Dec-05 00:00N 27°54' W 139°54'   070 / 171012.210.8 21.116.522.3
Track history (hours):
 
Tides and Currents Weather Stations Pressure Air Temp Water Temp Dewpoint Dewpoint Depression Visibility Wind Speed Wind Dir Waves Ship Positions

Mokihana

Owner: MATSON NAVIGATION CO, Tacoma, WA. More information available from US FCC via Universal Licensing System and Coast Guard Vessel Documentation Center.

Last reported at 2017-Dec-14 13:11 UTC. Time now 2017-Dec-16 01:24 UTC.
Position N 33°46' W 118°13'.

Type: Ship. MMSI: 367196000.

Date/timePositionNaut miles runAvg speedWind from/ knotsBaromVisibWave heightAir tempDewpointWater temp
2017-Dec-14 13:11N 33°46' W 118°13'4 6.7
2017-Dec-14 12:36N 33°42' W 118°11'110.7
2017-Dec-14 12:30N 33°41' W 118°11'510.0
2017-Dec-14 12:00N 33°36' W 118°10'510.3
2017-Dec-14 11:31N 33°32' W 118°08'611.7
2017-Dec-14 11:01N 33°26' W 118°05'611.8
2017-Dec-14 10:30N 33°21' W 118°03'611.7
2017-Dec-14 10:00N 33°15' W 117°60'612.0
2017-Dec-14 09:30N 33°10' W 117°57'714.1
2017-Dec-14 09:01N 33°03' W 117°55'815.2
2017-Dec-14 08:30N 32°56' W 117°53'815.3
2017-Dec-14 08:00N 32°48' W 117°51'815.4
2017-Dec-14 07:30N 32°40' W 117°50'714.7
2017-Dec-14 07:00N 32°33' W 117°52'815.2
2017-Dec-14 06:30N 32°27' W 117°56'815.6
2017-Dec-14 06:00N 32°19' W 117°59'815.6
2017-Dec-14 05:30N 32°12' W 118°02'815.5
2017-Dec-14 05:00N 32°05' W 118°06'815.5
2017-Dec-14 04:28N 31°57' W 118°10'715.6
2017-Dec-14 04:00N 31°51' W 118°13'815.4
2017-Dec-14 03:30N 31°44' W 118°17'5716.2
2017-Dec-14 00:00N 31°00' W 119°00'4024.6 340 / 71015.0 24.015.818.0
2017-Dec-13 22:21N 30°53' W 119°46'822.6
2017-Dec-13 22:00N 30°51' W 119°55'1122.3
2017-Dec-13 21:30N 30°49' W 120°08'1122.4
2017-Dec-13 21:00N 30°47' W 120°21'1122.4
2017-Dec-13 20:30N 30°44' W 120°33'1122.4
2017-Dec-13 20:00N 30°42' W 120°46'1122.3
2017-Dec-13 19:30N 30°39' W 120°59'1122.5
2017-Dec-13 19:00N 30°37' W 121°12'1122.2
2017-Dec-13 18:30N 30°35' W 121°24'1122.4
2017-Dec-13 18:00N 30°32' W 121°37'1122.1
2017-Dec-13 17:30N 30°30' W 121°49'1122.2
2017-Dec-13 17:00N 30°29' W 122°02'1122.2
2017-Dec-13 16:30N 30°28' W 122°15'1121.9
2017-Dec-13 16:00N 30°28' W 122°28'1121.7
2017-Dec-13 15:30N 30°27' W 122°40'1121.7
2017-Dec-13 15:00N 30°26' W 122°53'1121.8
2017-Dec-13 14:30N 30°25' W 123°05'1121.6
2017-Dec-13 14:00N 30°25' W 123°18'1121.8
2017-Dec-13 13:30N 30°24' W 123°30'1121.8
2017-Dec-13 13:00N 30°23' W 123°43'1121.8
2017-Dec-13 12:30N 30°22' W 123°56'1121.7
2017-Dec-13 12:00N 30°21' W 124°08'4245.9
2017-Dec-13 12:00N 30°18' W 124°06'1426.2 350 / 121020.0 16.012.417.0
2017-Dec-13 11:26N 30°20' W 124°22'1021.8
2017-Dec-13 10:59N 30°20' W 124°34'1021.5
2017-Dec-13 10:30N 30°19' W 124°46'1121.8
2017-Dec-13 10:00N 30°18' W 124°58'1121.7
2017-Dec-13 09:30N 30°17' W 125°11'1121.8
2017-Dec-13 09:00N 30°16' W 125°23'1121.7
2017-Dec-13 08:30N 30°15' W 125°36'1121.8
2017-Dec-13 08:00N 30°14' W 125°49'1121.8
2017-Dec-13 07:30N 30°13' W 126°01'1121.6
2017-Dec-13 07:00N 30°12' W 126°14'1121.4
2017-Dec-13 06:30N 30°11' W 126°26'1121.6
2017-Dec-13 06:00N 30°10' W 126°38'1121.7
2017-Dec-13 05:30N 30°09' W 126°51'1121.7
2017-Dec-13 05:00N 30°08' W 127°03'1121.6
2017-Dec-13 04:30N 30°07' W 127°16'1121.8
2017-Dec-13 04:00N 30°05' W 127°28'1121.5
2017-Dec-13 03:30N 30°04' W 127°41'1321.4
2017-Dec-13 02:53N 30°03' W 127°56'3921.7
2017-Dec-13 01:04N 29°58' W 128°41'2220.5
2017-Dec-13 00:00N 29°54' W 129°06'6321.8 110 / 121022.027.0 23.014.624.0
2017-Dec-12 21:07N 29°48' W 130°18'221.0
2017-Dec-12 21:00N 29°47' W 130°21'1121.0
2017-Dec-12 20:30N 29°46' W 130°33'1921.1
2017-Dec-12 19:35N 29°43' W 130°55'221.5
2017-Dec-12 19:30N 29°43' W 130°57'1521.2
2017-Dec-12 18:48N 29°41' W 131°14'821.5
2017-Dec-12 18:26N 29°40' W 131°23'2421.5
2017-Dec-12 17:20N 29°37' W 131°50'821.8
2017-Dec-12 16:59N 29°35' W 131°58'10721.5
2017-Dec-12 12:00N 29°18' W 134°00'26321.9 140 / 151024.0 18.014.622.0
2017-Dec-12 00:00N 28°24' W 138°54'52121.7 130 / 81019.0 23.018.323.0
2017-Dec-11 00:00N 25°18' W 148°00'25621.3 070 / 101015.110.8 25.013.123.0
2017-Dec-10 12:00N 23°36' W 152°18'14023.4 050 / 141014.410.8 20.214.824.0
2017-Dec-10 06:00N 22°36' W 154°36'   070 / 31013.0 23.019.924.0
2017-Dec-06 12:00N 23°24' W 152°42'23419.5 330 / 221015.410.8 20.010.923.3
2017-Dec-06 00:00N 25°00' W 148°48'24720.6 330 / 451006.810.8 19.412.723.3
2017-Dec-05 12:00N 26°24' W 144°30'26221.8 050 / 61009.910.8 20.616.022.2
2017-Dec-05 00:00N 27°54' W 139°54'   070 / 171012.210.8 21.116.522.3

Dump ship's entire track history